createdAt,value
2023-03-03T00:01:09.484Z,52.25
2023-03-03T00:03:36.089Z,52.25
2023-03-03T00:06:02.666Z,52.47
2023-03-03T00:08:29.272Z,52.77
2023-03-03T00:10:55.872Z,52.94
2023-03-03T00:13:22.450Z,52.57
2023-03-03T00:15:49.079Z,52.49
2023-03-03T00:18:15.651Z,52.82
2023-03-03T00:20:42.235Z,52.48
2023-03-03T00:23:08.788Z,52.46
2023-03-03T00:25:35.387Z,52.75
2023-03-03T00:28:02.022Z,52.68
2023-03-03T00:30:28.589Z,52.42
2023-03-03T00:32:55.208Z,52.45
2023-03-03T00:35:21.757Z,53.15
2023-03-03T00:37:48.393Z,53.40
2023-03-03T00:40:14.965Z,53.47
2023-03-03T00:42:41.590Z,53.07
2023-03-03T00:45:08.173Z,52.64
2023-03-03T00:47:34.903Z,53.13
2023-03-03T00:50:01.502Z,52.74
2023-03-03T00:52:28.195Z,52.99
2023-03-03T00:54:54.747Z,52.37
2023-03-03T00:57:21.343Z,52.69
2023-03-03T00:59:47.961Z,52.98
2023-03-03T01:02:14.624Z,52.99
2023-03-03T01:04:41.198Z,52.63
2023-03-03T01:07:07.809Z,53.14
2023-03-03T01:09:34.516Z,53.36
2023-03-03T01:12:03.430Z,53.72
2023-03-03T01:14:30.014Z,52.99
2023-03-03T01:16:56.605Z,53.12
2023-03-03T01:19:23.411Z,53.04
2023-03-03T01:21:49.992Z,53.27
2023-03-03T01:24:16.599Z,53.64
2023-03-03T01:26:43.225Z,53.73
2023-03-03T01:29:09.847Z,53.89
2023-03-03T01:31:36.542Z,53.94
2023-03-03T01:34:03.265Z,53.62
2023-03-03T01:36:29.867Z,53.65
2023-03-03T01:38:56.459Z,54.37
2023-03-03T01:41:23.111Z,54.38
2023-03-03T01:43:49.691Z,53.94
2023-03-03T01:46:16.275Z,53.79
2023-03-03T01:48:43.061Z,53.75
2023-03-03T01:51:09.663Z,53.88
2023-03-03T01:53:36.263Z,54.35
2023-03-03T01:56:02.836Z,54.76
2023-03-03T01:58:29.418Z,55.17
2023-03-03T02:00:55.998Z,55.17
2023-03-03T02:03:22.568Z,55.74
2023-03-03T02:05:49.181Z,55.76
2023-03-03T02:08:15.760Z,56.38
2023-03-03T02:10:42.349Z,56.00
2023-03-03T02:13:08.966Z,57.69
2023-03-03T02:15:35.582Z,57.67
2023-03-03T02:18:02.177Z,57.82
2023-03-03T02:20:28.780Z,56.98
2023-03-03T02:22:55.598Z,57.29
2023-03-03T02:25:22.166Z,57.89
2023-03-03T02:27:48.752Z,57.23
2023-03-03T02:30:15.374Z,57.31
2023-03-03T02:32:42.008Z,57.52
2023-03-03T02:35:08.591Z,57.46
2023-03-03T02:37:35.176Z,57.39
2023-03-03T02:40:01.761Z,57.17
2023-03-03T02:42:28.327Z,57.89
2023-03-03T02:44:54.923Z,57.43
2023-03-03T02:47:21.509Z,58.48
2023-03-03T02:49:48.170Z,58.60
2023-03-03T02:52:14.859Z,58.26
2023-03-03T02:54:41.513Z,57.59
2023-03-03T02:57:08.440Z,57.56
2023-03-03T02:59:35.197Z,58.03
2023-03-03T03:02:01.827Z,57.44
2023-03-03T03:04:28.467Z,58.17
2023-03-03T03:06:55.104Z,58.10
2023-03-03T03:09:21.662Z,58.03
2023-03-03T03:11:48.229Z,58.64
2023-03-03T03:14:14.816Z,58.26
2023-03-03T03:16:41.514Z,57.87
2023-03-03T03:19:08.167Z,57.88
2023-03-03T03:21:34.767Z,57.81
2023-03-03T03:24:01.343Z,57.87
2023-03-03T03:26:27.930Z,57.94
2023-03-03T03:28:54.653Z,58.22
2023-03-03T03:31:21.308Z,58.29
2023-03-03T03:33:47.923Z,58.01
2023-03-03T03:36:14.529Z,58.73
2023-03-03T03:38:41.132Z,58.76
2023-03-03T03:41:07.771Z,58.39
2023-03-03T03:43:34.450Z,58.53
2023-03-03T03:46:01.099Z,58.55
2023-03-03T03:48:27.676Z,58.26
2023-03-03T03:50:54.264Z,57.94
2023-03-03T03:53:20.901Z,58.56
2023-03-03T03:55:47.510Z,57.82
2023-03-03T03:58:14.147Z,58.44
2023-03-03T04:00:40.740Z,58.03
2023-03-03T04:03:07.453Z,57.89
2023-03-03T04:05:34.120Z,58.14
2023-03-03T04:08:00.717Z,57.93
2023-03-03T04:10:27.316Z,58.62
2023-03-03T04:12:53.873Z,58.25
2023-03-03T04:15:20.471Z,58.55
2023-03-03T04:17:47.049Z,58.21
2023-03-03T04:20:13.682Z,58.23
2023-03-03T04:22:40.326Z,58.75
2023-03-03T04:25:06.917Z,59.45
2023-03-03T04:27:33.570Z,59.07
2023-03-03T04:30:00.160Z,58.66
2023-03-03T04:32:26.772Z,58.32
2023-03-03T04:35:05.584Z,58.08
2023-03-03T04:37:34.024Z,58.19
2023-03-03T04:40:00.657Z,58.34
2023-03-03T04:42:27.270Z,58.41
2023-03-03T04:44:54.097Z,58.51
2023-03-03T04:47:20.688Z,58.26
2023-03-03T04:49:47.314Z,58.25
2023-03-03T04:52:13.940Z,58.70
2023-03-03T04:54:40.706Z,58.59
2023-03-03T04:57:07.299Z,58.50
2023-03-03T04:59:33.919Z,58.14
2023-03-03T05:02:00.544Z,58.49
2023-03-03T05:04:27.180Z,58.24
2023-03-03T05:06:53.783Z,57.93
2023-03-03T05:09:20.360Z,58.64
2023-03-03T05:11:46.947Z,58.21
2023-03-03T05:14:13.520Z,58.26
2023-03-03T05:16:40.078Z,58.50
2023-03-03T05:19:06.662Z,58.32
2023-03-03T05:21:33.257Z,58.02
2023-03-03T05:23:59.886Z,58.19
2023-03-03T05:26:26.487Z,57.89
2023-03-03T05:28:53.055Z,58.71
2023-03-03T05:31:19.713Z,58.38
2023-03-03T05:33:46.321Z,57.93
2023-03-03T05:36:12.967Z,57.88
2023-03-03T05:38:39.585Z,58.70
2023-03-03T05:41:06.173Z,58.93
2023-03-03T05:43:32.786Z,58.80
2023-03-03T05:45:59.365Z,58.83
2023-03-03T05:48:25.951Z,59.06
2023-03-03T05:50:52.508Z,58.88
2023-03-03T05:53:19.111Z,58.35
2023-03-03T05:55:45.704Z,58.28
2023-03-03T05:58:12.295Z,58.52
2023-03-03T06:00:38.920Z,58.04
2023-03-03T06:03:05.571Z,58.02
2023-03-03T06:05:32.166Z,58.55
2023-03-03T06:07:58.803Z,58.26
2023-03-03T06:10:25.390Z,58.47
2023-03-03T06:12:51.963Z,57.88
2023-03-03T06:15:18.634Z,58.27
2023-03-03T06:17:45.236Z,58.23
2023-03-03T06:20:11.804Z,57.93
2023-03-03T06:22:38.420Z,57.45
2023-03-03T06:25:05.070Z,57.38
2023-03-03T06:27:31.714Z,57.84
2023-03-03T06:29:58.347Z,57.95
2023-03-03T06:32:24.968Z,57.25
2023-03-03T06:34:51.607Z,57.24
2023-03-03T06:37:18.162Z,57.08
2023-03-03T06:39:45.146Z,57.61
2023-03-03T06:42:11.978Z,57.31
2023-03-03T06:44:38.550Z,58.06
2023-03-03T06:47:05.130Z,58.03
2023-03-03T06:49:31.707Z,57.51
2023-03-03T06:51:58.263Z,56.81
2023-03-03T06:54:26.976Z,56.80
2023-03-03T06:56:54.910Z,56.53
2023-03-03T06:59:21.515Z,56.31
2023-03-03T07:01:48.104Z,56.38
2023-03-03T07:04:14.747Z,56.53
2023-03-03T07:06:41.415Z,56.42
2023-03-03T07:09:07.989Z,56.16
2023-03-03T07:11:34.600Z,56.49
2023-03-03T07:14:01.183Z,56.41
2023-03-03T07:16:27.858Z,56.58
2023-03-03T07:18:54.465Z,56.39
2023-03-03T07:21:21.057Z,57.34
2023-03-03T07:23:47.665Z,57.57
2023-03-03T07:26:14.258Z,57.58
2023-03-03T07:28:40.823Z,58.05
2023-03-03T07:31:07.521Z,57.78
2023-03-03T07:33:34.157Z,58.37
2023-03-03T07:36:00.844Z,58.33
2023-03-03T07:38:27.429Z,58.28
2023-03-03T07:40:54.128Z,57.84
2023-03-03T07:43:20.697Z,57.48
2023-03-03T07:45:47.436Z,57.13
2023-03-03T07:48:14.138Z,57.01
2023-03-03T07:50:40.765Z,56.56
2023-03-03T07:53:07.346Z,56.13
2023-03-03T07:55:33.925Z,55.73
2023-03-03T07:58:00.662Z,55.15
2023-03-03T08:00:27.241Z,55.30
2023-03-03T08:02:53.880Z,54.67
2023-03-03T08:05:20.539Z,55.08
2023-03-03T08:07:47.267Z,54.31
2023-03-03T08:10:13.870Z,53.52
2023-03-03T08:12:40.425Z,54.49
2023-03-03T08:15:07.029Z,53.62
2023-03-03T08:17:33.844Z,53.08
2023-03-03T08:20:00.435Z,53.50
2023-03-03T08:22:27.354Z,53.00
2023-03-03T08:24:53.933Z,52.94
2023-03-03T08:27:20.592Z,52.62
2023-03-03T08:29:48.543Z,52.23
2023-03-03T08:32:15.386Z,51.88
2023-03-03T08:34:42.047Z,52.09
2023-03-03T08:37:08.643Z,51.97
2023-03-03T08:39:35.255Z,50.94
2023-03-03T08:42:01.850Z,50.56
2023-03-03T08:44:28.587Z,49.88
2023-03-03T08:46:55.163Z,49.51
2023-03-03T08:49:21.792Z,49.84
2023-03-03T08:51:48.379Z,50.04
2023-03-03T08:54:14.997Z,51.36
2023-03-03T08:56:41.588Z,50.90
2023-03-03T08:59:08.169Z,50.46
2023-03-03T09:01:34.860Z,50.01
2023-03-03T09:04:03.356Z,50.34
2023-03-03T09:06:29.964Z,49.78
2023-03-03T09:08:56.616Z,49.81
2023-03-03T09:11:23.227Z,49.77
2023-03-03T09:13:49.855Z,50.23
2023-03-03T09:16:16.539Z,48.75
2023-03-03T09:18:43.225Z,48.59
2023-03-03T09:21:09.783Z,48.13
2023-03-03T09:23:36.370Z,47.18
2023-03-03T09:26:03.000Z,46.66
2023-03-03T09:28:29.617Z,47.02
2023-03-03T09:30:56.459Z,46.98
2023-03-03T09:33:23.384Z,46.69
2023-03-03T09:35:49.970Z,47.10
2023-03-03T09:38:16.800Z,47.77
2023-03-03T09:40:43.465Z,46.63
2023-03-03T09:43:10.061Z,48.67
2023-03-03T09:45:36.631Z,47.87
2023-03-03T09:48:03.248Z,47.08
2023-03-03T09:50:31.927Z,46.16
2023-03-03T09:52:58.498Z,45.96
2023-03-03T09:55:25.584Z,45.48
2023-03-03T09:58:08.283Z,46.60
2023-03-03T10:00:36.936Z,47.04
2023-03-03T10:03:03.569Z,47.93
2023-03-03T10:05:30.214Z,47.27
2023-03-03T10:07:56.818Z,47.73
2023-03-03T10:10:23.430Z,46.42
2023-03-03T10:12:50.555Z,46.45
2023-03-03T10:15:17.234Z,48.53
2023-03-03T10:17:43.839Z,48.24
2023-03-03T10:20:10.593Z,47.28
2023-03-03T10:22:37.171Z,45.52
2023-03-03T10:25:03.738Z,44.33
2023-03-03T10:27:30.318Z,43.92
2023-03-03T10:29:56.953Z,45.89
2023-03-03T10:32:23.760Z,46.70
2023-03-03T10:34:50.662Z,46.17
2023-03-03T10:37:17.232Z,46.00
2023-03-03T10:39:43.845Z,44.34
2023-03-03T10:42:10.423Z,45.51
2023-03-03T10:44:36.993Z,46.42
2023-03-03T10:47:03.590Z,46.71
2023-03-03T10:49:30.212Z,46.79
2023-03-03T10:51:57.023Z,46.34
2023-03-03T10:54:23.598Z,43.62
2023-03-03T10:56:53.410Z,43.91
2023-03-03T10:59:20.420Z,43.98
2023-03-03T11:01:47.006Z,43.97
2023-03-03T11:04:15.778Z,44.02
2023-03-03T11:06:42.661Z,42.51
2023-03-03T11:09:09.293Z,40.50
2023-03-03T11:11:35.837Z,40.96
2023-03-03T11:14:02.421Z,41.31
2023-03-03T11:16:29.247Z,41.45
2023-03-03T11:18:58.871Z,41.48
2023-03-03T11:21:27.088Z,42.83
2023-03-03T11:23:53.670Z,42.72
2023-03-03T11:26:20.313Z,42.57
2023-03-03T11:28:46.895Z,41.97
2023-03-03T11:31:13.534Z,41.55
2023-03-03T11:33:40.143Z,41.19
2023-03-03T11:36:06.718Z,41.49
2023-03-03T11:38:33.326Z,41.99
2023-03-03T11:41:00.084Z,41.93
2023-03-03T11:43:36.612Z,42.43
2023-03-03T11:46:03.846Z,42.52
2023-03-03T11:48:30.559Z,43.99
2023-03-03T11:50:57.127Z,44.09
2023-03-03T11:53:23.761Z,44.06
2023-03-03T11:55:50.397Z,43.60
2023-03-03T11:58:16.960Z,43.11
2023-03-03T12:00:43.550Z,42.73
2023-03-03T12:03:10.101Z,43.59
2023-03-03T12:05:36.847Z,42.60
2023-03-03T12:08:03.496Z,42.00
2023-03-03T12:10:30.152Z,42.39
2023-03-03T12:12:56.731Z,42.79
2023-03-03T12:15:23.336Z,41.80
2023-03-03T12:17:50.766Z,41.93
2023-03-03T12:20:17.408Z,42.64
2023-03-03T12:22:44.287Z,42.14
2023-03-03T12:25:11.607Z,41.75
2023-03-03T12:27:38.188Z,43.03
2023-03-03T12:30:05.486Z,42.24
2023-03-03T12:32:32.266Z,42.20
2023-03-03T12:34:58.887Z,42.60
2023-03-03T12:37:25.458Z,44.53
2023-03-03T12:39:52.352Z,44.55
2023-03-03T12:42:18.938Z,43.13
2023-03-03T12:44:45.544Z,44.45
2023-03-03T12:47:12.119Z,45.29
2023-03-03T12:49:43.409Z,46.45
2023-03-03T12:52:11.797Z,46.83
2023-03-03T12:54:38.387Z,47.64
2023-03-03T12:57:05.054Z,47.11
2023-03-03T12:59:31.602Z,46.72
2023-03-03T13:01:58.330Z,45.66
2023-03-03T13:04:24.909Z,44.09
2023-03-03T13:06:51.531Z,43.69
2023-03-03T13:09:18.164Z,42.91
2023-03-03T13:11:44.745Z,43.48
2023-03-03T13:14:11.332Z,43.50
2023-03-03T13:16:41.429Z,44.28
2023-03-03T13:19:09.869Z,46.19
2023-03-03T13:21:36.507Z,46.78
2023-03-03T13:24:03.706Z,46.61
2023-03-03T13:26:31.880Z,44.98
2023-03-03T13:28:58.697Z,44.38
2023-03-03T13:31:25.313Z,43.38
2023-03-03T13:33:51.963Z,43.17
2023-03-03T13:36:18.535Z,43.51
2023-03-03T13:38:45.177Z,42.63
2023-03-03T13:41:11.794Z,41.65
2023-03-03T13:43:38.400Z,41.44
2023-03-03T13:46:05.017Z,42.80
2023-03-03T13:48:31.688Z,43.66
2023-03-03T13:50:58.248Z,43.10
2023-03-03T13:53:24.830Z,43.51
2023-03-03T13:55:51.467Z,42.71
2023-03-03T13:58:21.306Z,44.52
2023-03-03T14:00:48.188Z,45.08
2023-03-03T14:03:14.779Z,44.98
2023-03-03T14:05:41.375Z,45.21
2023-03-03T14:08:08.073Z,44.27
2023-03-03T14:10:34.633Z,44.02
2023-03-03T14:13:01.245Z,43.50
2023-03-03T14:15:28.539Z,42.64
2023-03-03T14:17:55.148Z,42.19
2023-03-03T14:20:21.767Z,41.68
2023-03-03T14:22:48.348Z,42.25
2023-03-03T14:25:14.939Z,43.56
2023-03-03T14:27:41.596Z,43.59
2023-03-03T14:30:08.163Z,42.73
2023-03-03T14:32:45.126Z,42.55
2023-03-03T14:35:12.576Z,42.46
2023-03-03T14:37:39.450Z,42.13
2023-03-03T14:40:06.024Z,41.98
2023-03-03T14:42:32.811Z,42.06
2023-03-03T14:44:59.462Z,41.98
2023-03-03T14:47:26.047Z,41.67
2023-03-03T14:49:52.646Z,41.92
2023-03-03T14:52:19.211Z,41.61
2023-03-03T14:54:45.807Z,41.63
2023-03-03T14:57:12.395Z,41.96
2023-03-03T14:59:39.026Z,41.65
2023-03-03T15:02:05.627Z,41.12
2023-03-03T15:04:32.288Z,41.60
2023-03-03T15:06:58.947Z,41.60
2023-03-03T15:09:25.562Z,41.19
2023-03-03T15:11:52.260Z,41.19
2023-03-03T15:14:18.886Z,40.82
2023-03-03T15:16:45.484Z,40.78
2023-03-03T15:19:12.082Z,40.50
2023-03-03T15:21:38.635Z,40.33
2023-03-03T15:24:05.242Z,40.09
2023-03-03T15:26:31.885Z,39.33
2023-03-03T15:28:58.554Z,40.56
2023-03-03T15:31:25.246Z,39.96
2023-03-03T15:33:51.857Z,40.64
2023-03-03T15:36:18.422Z,40.11
2023-03-03T15:38:45.027Z,40.44
2023-03-03T15:41:11.777Z,40.97
2023-03-03T15:43:38.414Z,41.83
2023-03-03T15:46:05.063Z,41.76
2023-03-03T15:48:31.712Z,42.07
2023-03-03T15:50:58.283Z,42.13
2023-03-03T15:53:24.948Z,42.43
2023-03-03T15:55:51.583Z,42.78
2023-03-03T15:58:18.157Z,42.57
2023-03-03T16:00:44.868Z,42.68
2023-03-03T16:03:14.395Z,43.07
2023-03-03T16:05:41.078Z,43.10
2023-03-03T16:08:07.651Z,42.96
2023-03-03T16:10:34.236Z,42.85
2023-03-03T16:13:00.868Z,43.59
2023-03-03T16:15:27.504Z,44.10
2023-03-03T16:17:54.086Z,43.67
2023-03-03T16:20:20.690Z,44.15
2023-03-03T16:22:47.315Z,44.18
2023-03-03T16:25:13.897Z,44.06
2023-03-03T16:27:40.495Z,44.23
2023-03-03T16:30:07.254Z,44.47
2023-03-03T16:32:33.948Z,44.51
2023-03-03T16:35:00.556Z,44.61
2023-03-03T16:37:27.223Z,44.80
2023-03-03T16:39:53.790Z,44.86
2023-03-03T16:42:20.416Z,45.34
2023-03-03T16:44:47.057Z,45.24
2023-03-03T16:47:13.732Z,45.46
2023-03-03T16:49:40.327Z,45.78
2023-03-03T16:52:06.903Z,45.96
2023-03-03T16:54:33.487Z,45.92
2023-03-03T16:57:00.110Z,46.17
2023-03-03T16:59:26.718Z,46.44
2023-03-03T17:01:53.310Z,46.53
2023-03-03T17:04:19.872Z,47.63
2023-03-03T17:06:46.505Z,47.61
2023-03-03T17:09:20.442Z,47.75
2023-03-03T17:11:56.855Z,47.61
2023-03-03T17:14:23.425Z,47.53
2023-03-03T17:16:52.674Z,48.01
2023-03-03T17:19:20.094Z,48.33
2023-03-03T17:21:46.708Z,49.24
2023-03-03T17:24:13.276Z,48.81
2023-03-03T17:26:39.924Z,49.03
2023-03-03T17:29:06.522Z,48.89
2023-03-03T17:31:33.186Z,49.74
2023-03-03T17:33:59.747Z,49.93
2023-03-03T17:36:26.364Z,49.50
2023-03-03T17:38:52.923Z,49.40
2023-03-03T17:41:19.531Z,49.44
2023-03-03T17:43:46.112Z,49.53
2023-03-03T17:46:12.740Z,49.61
2023-03-03T17:48:39.372Z,49.61
2023-03-03T17:51:05.994Z,50.05
2023-03-03T17:53:32.589Z,50.12
2023-03-03T17:55:59.176Z,49.98
2023-03-03T17:58:25.743Z,50.08
2023-03-03T18:00:52.361Z,49.96
2023-03-03T18:03:18.965Z,50.08
2023-03-03T18:05:46.038Z,50.20
2023-03-03T18:08:12.603Z,50.22
2023-03-03T18:10:39.841Z,50.33
2023-03-03T18:13:07.525Z,50.45
2023-03-03T18:15:34.165Z,51.02
2023-03-03T18:18:00.972Z,51.58
2023-03-03T18:20:27.577Z,51.24
2023-03-03T18:22:54.153Z,52.01
2023-03-03T18:25:20.925Z,52.13
2023-03-03T18:27:47.546Z,51.83
2023-03-03T18:30:14.139Z,51.54
2023-03-03T18:32:40.724Z,51.81
2023-03-03T18:35:07.317Z,51.98
2023-03-03T18:40:17.842Z,52.12
2023-03-03T18:42:44.453Z,51.77
2023-03-03T18:45:11.031Z,52.04
2023-03-03T18:47:37.686Z,52.42
2023-03-03T18:50:04.256Z,52.14
2023-03-03T18:52:30.965Z,52.47
2023-03-03T18:54:57.579Z,52.59
2023-03-03T18:57:24.192Z,52.80
2023-03-03T18:59:50.751Z,52.80
2023-03-03T19:02:17.347Z,52.99
2023-03-03T19:04:43.988Z,53.34
2023-03-03T19:07:10.596Z,55.49
2023-03-03T19:09:37.171Z,55.73
2023-03-03T19:12:03.732Z,55.22
2023-03-03T19:14:30.340Z,55.65
2023-03-03T19:16:56.915Z,55.13
2023-03-03T19:19:23.589Z,54.01
2023-03-03T19:21:50.177Z,53.58
2023-03-03T19:24:16.772Z,53.75
2023-03-03T19:26:43.352Z,54.81
2023-03-03T19:29:09.953Z,55.16
2023-03-03T19:31:36.653Z,55.00
2023-03-03T19:34:03.311Z,54.31
2023-03-03T19:36:29.934Z,54.63
2023-03-03T19:38:56.654Z,54.82
2023-03-03T19:41:23.224Z,54.11
2023-03-03T19:43:49.846Z,54.80
2023-03-03T19:46:16.621Z,55.25
2023-03-03T19:48:43.217Z,54.79
2023-03-03T19:51:09.860Z,55.10
2023-03-03T19:53:36.496Z,54.87
2023-03-03T19:56:03.067Z,54.81
2023-03-03T19:58:29.637Z,54.91
2023-03-03T20:00:56.250Z,54.95
2023-03-03T20:03:22.847Z,55.39
2023-03-03T20:05:49.434Z,54.92
2023-03-03T20:08:16.247Z,55.65
2023-03-03T20:10:42.847Z,55.72
2023-03-03T20:13:09.461Z,57.93
2023-03-03T20:15:36.059Z,57.89
2023-03-03T20:18:02.655Z,57.18
2023-03-03T20:20:29.210Z,56.76
2023-03-03T20:22:55.832Z,56.66
2023-03-03T20:25:22.466Z,56.92
2023-03-03T20:27:49.029Z,56.49
2023-03-03T20:30:15.692Z,55.61
2023-03-03T20:32:42.253Z,56.27
2023-03-03T20:35:08.827Z,56.01
2023-03-03T20:37:37.485Z,56.53
2023-03-03T20:40:04.057Z,55.90
2023-03-03T20:42:30.635Z,56.67
2023-03-03T20:44:57.203Z,57.24
2023-03-03T20:47:23.804Z,56.94
2023-03-03T20:49:50.401Z,56.65
2023-03-03T20:52:17.063Z,57.11
2023-03-03T20:54:43.657Z,56.95
2023-03-03T20:57:10.363Z,56.50
2023-03-03T20:59:36.989Z,56.89
2023-03-03T21:02:03.689Z,57.21
2023-03-03T21:04:30.371Z,57.60
2023-03-03T21:06:56.987Z,57.69
2023-03-03T21:09:23.577Z,58.09
2023-03-03T21:11:50.150Z,57.91
2023-03-03T21:14:16.765Z,57.43
2023-03-03T21:16:43.389Z,57.55
2023-03-03T21:19:09.976Z,57.45
2023-03-03T21:21:36.579Z,57.27
2023-03-03T21:24:03.128Z,57.60
2023-03-03T21:26:30.025Z,57.43
2023-03-03T21:28:56.591Z,58.24
2023-03-03T21:31:23.183Z,58.42
2023-03-03T21:33:49.794Z,58.72
2023-03-03T21:36:16.373Z,58.24
2023-03-03T21:38:43.020Z,58.55
2023-03-03T21:41:09.591Z,59.38
2023-03-03T21:43:36.204Z,58.61
2023-03-03T21:46:02.794Z,59.70
2023-03-03T21:48:29.440Z,59.29
2023-03-03T21:50:56.019Z,58.82
2023-03-03T21:53:22.601Z,59.37
2023-03-03T21:55:49.351Z,58.96
2023-03-03T21:58:15.939Z,59.27
2023-03-03T22:00:42.537Z,58.96
2023-03-03T22:03:09.119Z,59.07
2023-03-03T22:05:35.690Z,59.28
2023-03-03T22:08:02.282Z,58.44
2023-03-03T22:10:28.895Z,58.62
2023-03-03T22:12:55.762Z,58.09
2023-03-03T22:15:22.383Z,58.76
2023-03-03T22:17:48.955Z,59.11
2023-03-03T22:20:15.537Z,59.28
2023-03-03T22:22:42.116Z,59.03
2023-03-03T22:25:08.732Z,59.22
2023-03-03T22:27:35.325Z,59.02
2023-03-03T22:30:01.918Z,59.27
2023-03-03T22:32:28.537Z,58.63
2023-03-03T22:34:55.180Z,59.25
2023-03-03T22:37:21.763Z,59.42
2023-03-03T22:39:48.360Z,59.94
2023-03-03T22:42:14.963Z,59.75
2023-03-03T22:44:42.531Z,59.29
2023-03-03T22:47:10.217Z,59.33
2023-03-03T22:49:36.789Z,59.68
2023-03-03T22:52:03.410Z,59.94
2023-03-03T22:54:29.981Z,58.98
2023-03-03T22:56:56.564Z,59.71
2023-03-03T22:59:23.972Z,58.72
2023-03-03T23:01:50.531Z,59.60
2023-03-03T23:04:17.216Z,59.05
2023-03-03T23:06:44.059Z,59.42
2023-03-03T23:09:10.641Z,60.53
2023-03-03T23:11:37.287Z,60.73
2023-03-03T23:14:03.882Z,59.98
2023-03-03T23:16:30.472Z,60.16
2023-03-03T23:18:57.084Z,60.55
2023-03-03T23:21:23.660Z,59.70
2023-03-03T23:23:50.248Z,59.36
2023-03-03T23:26:19.078Z,59.05
2023-03-03T23:28:45.671Z,60.16
2023-03-03T23:31:12.244Z,59.60
2023-03-03T23:33:38.872Z,59.93
2023-03-03T23:36:05.451Z,60.09
2023-03-03T23:38:32.052Z,60.94
2023-03-03T23:40:58.663Z,59.86
2023-03-03T23:43:25.286Z,60.64
2023-03-03T23:45:51.868Z,60.69
2023-03-03T23:48:18.898Z,59.88
2023-03-03T23:50:45.460Z,59.68
2023-03-03T23:53:12.052Z,60.26
2023-03-03T23:55:38.645Z,60.11
2023-03-03T23:58:05.226Z,60.42
